In Rescue
 
Open Full Screen Window  High Contrast Mode
August 09, 2020 6:41 PM EDT
Weather Information
Wind Direction
  ---
Wind Speed
  00 kt (0 mph)
Wind Gust
  00 kt (0 mph)
Altimeter
30.04 in
Visibility
10 SM
Temperature
23° C
73° F
Dewpoint
18° C
64° F
Humidity
74%
Sky Condition
Overcast @ 5,000 ft
VFR

METAR KEFK 092241Z AUTO 00000KT 10SM OVC050 23/18 A3004 RMK AO2

FAA Disclaimer: The data displayed is for advisory purposes only and is not to be used for flight planning or operations.